X  Chiuso Dati meteorologici dell'aviazione (METAR)     LIPX Verona-Villafranca Valerio Catullo Airport
Temperatura
13°C Temperatura
11°C Punto di rugiada
88% Umidità



Vento
3 KM/h
2 MPH
1 M/S
2 KTS



110°
ESE
Condizioni attuali

Chiaro Chiaro
Pressione 1000.92 (hPa) - 29.56 (inHg)
Visibilità 6.2 (miglio) - 10 (km)
Aeroporto
Codice-Aeroporto LIPX

Posizione: Verona-Villafranca Valerio Catullo Airport
Distanza: 14 (km)

Metar:
LIPX 262350Z 11002KT CAVOK 13/11 Q1001

Ore: 27-09-2022 01:50 CEST